Time;durP1;ratioP1;P1;durP2;ratioP2;P2;SDS_P1;SDS_P2;PMS_P1;PMS_P2;Temp;Humidity;BMP_temperature;BMP_pressure;BME280_temperature;BME280_humidity;BME280_pressure;Samples;Min_cycle;Max_cycle;Signal;HPM_P1;HPM_P2
2022/10/26 04:30:27;;;;;;;;;2.25;2.25;;;;;17.48;71.83;100868.00;5082610;27;45544;-76
2022/10/26 04:32:53;;;;;;;;;4.25;3.00;;;;;17.48;71.52;100870.72;5053603;28;45592;-77
2022/10/26 04:35:18;;;;;;;;;3.00;3.00;;;;;17.45;71.87;100873.66;5053876;28;45423;-77
2022/10/26 04:37:43;;;;;;;;;4.00;2.00;;;;;17.41;71.98;100873.03;5054314;28;45486;-77
2022/10/26 04:40:09;;;;;;;;;3.00;3.00;;;;;17.43;71.85;100879.22;5054014;28;45304;-76
2022/10/26 04:42:43;;;;;;;;;2.75;2.75;;;;;17.38;72.24;100875.94;5054278;28;45394;-76
2022/10/26 04:45:08;;;;;;;;;2.00;2.00;;;;;17.42;72.03;100891.03;5053724;28;46421;-76
2022/10/26 04:47:34;;;;;;;;;2.50;2.50;;;;;17.37;71.97;100898.59;5054192;28;45437;-76
2022/10/26 04:49:59;;;;;;;;;1.75;1.75;;;;;17.34;71.90;100888.00;5054627;28;45420;-78
2022/10/26 04:52:24;;;;;;;;;2.25;2.25;;;;;17.30;72.21;100892.75;5035752;28;45383;-76
2022/10/26 04:54:50;;;;;;;;;4.50;3.00;;;;;17.36;71.87;100918.53;5053527;28;45466;-76
2022/10/26 04:57:15;;;;;;;;;4.00;2.75;;;;;17.31;72.12;100909.88;5036275;28;45410;-76
2022/10/26 04:59:40;;;;;;;;;2.50;2.50;;;;;17.34;72.06;100932.22;5054179;28;45283;-76
2022/10/26 05:02:05;;;;;;;;;4.00;3.25;;;;;17.35;72.21;100927.66;5035534;28;45594;-76
2022/10/26 05:04:31;;;;;;;;;2.00;2.00;;;;;17.28;72.78;100934.47;5053682;28;51214;-77
2022/10/26 05:06:56;;;;;;;;;2.50;2.50;;;;;17.21;72.36;100923.22;5053863;28;45446;-76
2022/10/26 05:09:21;;;;;;;;;3.00;3.00;;;;;17.16;72.50;100930.81;5053734;28;45403;-76
2022/10/26 05:11:47;;;;;;;;;3.75;2.00;;;;;17.16;72.72;100932.66;5035621;28;45463;-75
2022/10/26 05:14:13;;;;;;;;;2.00;2.00;;;;;17.19;72.59;100944.13;5053754;28;45661;-79
2022/10/26 05:16:38;;;;;;;;;2.00;2.00;;;;;17.20;72.72;100945.00;5053780;28;45280;-78
2022/10/26 05:19:05;;;;;;;;;3.25;2.25;;;;;17.03;72.47;100914.53;5054146;28;45307;-76
2022/10/26 05:21:30;;;;;;;;;1.75;1.75;;;;;17.20;72.51;100945.84;5054064;28;45213;-78
2022/10/26 05:23:55;;;;;;;;;3.00;3.00;;;;;17.16;72.76;100954.31;5041897;28;47483;-79
2022/10/26 05:26:22;;;;;;;;;3.00;1.75;;;;;17.22;72.75;100957.47;5041350;28;45379;-77
2022/10/26 05:28:48;;;;;;;;;4.75;2.75;;;;;17.25;72.53;100970.81;5057502;28;45315;-74
2022/10/26 05:31:16;;;;;;;;;2.00;2.00;;;;;17.25;72.73;100972.66;5043414;28;45479;-84
2022/10/26 05:33:42;;;;;;;;;4.00;2.00;;;;;17.25;72.49;100973.53;5091985;27;45406;-72
2022/10/26 05:36:07;;;;;;;;;2.75;2.75;;;;;17.17;72.28;100958.78;5099581;27;45603;-80
2022/10/26 05:38:33;;;;;;;;;2.25;1.75;;;;;17.28;72.51;100981.41;5098218;27;45437;-79
2022/10/26 05:41:00;;;;;;;;;4.75;1.50;;;;;17.19;72.83;100973.91;5079748;27;46111;-75
2022/10/26 05:43:26;;;;;;;;;3.50;3.50;;;;;17.19;72.92;100975.75;5097772;27;46165;-78
2022/10/26 05:45:52;;;;;;;;;6.25;2.75;;;;;17.27;73.15;100995.06;5097544;27;45365;-74
2022/10/26 05:48:18;;;;;;;;;3.25;3.25;;;;;17.29;72.72;100996.69;5098649;27;45342;-74
2022/10/26 05:50:44;;;;;;;;;2.75;1.25;;;;;17.33;72.42;101000.06;5098365;27;45473;-73
2022/10/26 05:53:09;;;;;;;;;2.00;2.00;;;;;17.36;72.41;101010.69;5098038;27;45465;-72
2022/10/26 05:55:35;;;;;;;;;5.25;2.00;;;;;17.35;72.70;101017.09;5097425;27;45376;-74
2022/10/26 05:58:01;;;;;;;;;2.25;2.00;;;;;17.31;72.95;101010.16;5097120;27;45347;-71
2022/10/26 06:00:27;;;;;;;;;3.75;3.00;;;;;17.39;72.80;101013.19;5096161;27;45468;-71
2022/10/26 06:03:11;;;;;;;;;3.25;1.75;;;;;17.40;73.02;101015.78;5088258;27;47104;-71
2022/10/26 06:05:57;;;;;;;;;2.00;2.00;;;;;17.42;72.53;101009.41;5096683;27;45402;-70
2022/10/26 06:08:25;;;;;;;;;1.75;1.75;;;;;17.35;72.66;101007.09;5095986;27;45973;-67
2022/10/26 06:10:52;;;;;;;;;3.00;3.00;;;;;17.40;72.79;101007.66;5096882;27;45255;-70
2022/10/26 06:13:18;;;;;;;;;3.00;3.00;;;;;17.41;72.46;101003.13;5076620;27;46304;-70
2022/10/26 06:16:01;;;;;;;;;4.75;3.00;;;;;17.38;72.29;101012.31;5083341;27;45489;-69
2022/10/26 06:18:51;;;;;;;;;5.00;3.00;;;;;17.42;72.53;101014.81;5081926;27;45574;-68
2022/10/26 06:21:58;;;;;;;;;2.00;2.00;;;;;17.38;72.61;100995.19;5095896;27;45437;-68
2022/10/26 06:24:48;;;;;;;;;2.75;2.75;;;;;17.31;72.80;100999.31;5076261;27;48422;-69
2022/10/26 06:27:19;;;;;;;;;5.25;4.25;;;;;17.37;72.49;101025.97;5097139;27;45420;-72
2022/10/26 06:30:00;;;;;;;;;2.00;2.00;;;;;17.31;72.52;101021.84;5097048;27;45493;-71
2022/10/26 06:32:26;;;;;;;;;2.00;2.00;;;;;17.32;72.68;101026.31;5096071;27;45634;-70
2022/10/26 06:35:01;;;;;;;;;6.50;4.00;;;;;17.30;72.80;101039.09;5096828;27;46027;-75
2022/10/26 06:37:29;;;;;;;;;3.25;3.25;;;;;17.23;72.58;101036.91;5094194;27;45620;-73
2022/10/26 06:39:56;;;;;;;;;4.00;4.00;;;;;17.20;72.87;101045.25;5095226;27;45534;-74
2022/10/26 06:42:21;;;;;;;;;3.50;3.50;;;;;17.23;72.54;101061.28;5092939;27;45607;-73
2022/10/26 06:44:47;;;;;;;;;8.00;4.25;;;;;17.22;72.81;101052.31;5092145;27;46268;-74
2022/10/26 06:47:55;;;;;;;;;3.75;3.75;;;;;17.21;72.88;101058.69;5076235;27;45448;-72
2022/10/26 06:50:37;;;;;;;;;6.00;4.00;;;;;17.18;72.95;101058.03;5056009;27;45683;-69
2022/10/26 06:53:13;;;;;;;;;5.00;3.50;;;;;17.21;72.80;101068.66;5095914;27;45915;-69
2022/10/26 06:55:45;;;;;;;;;5.75;3.00;;;;;17.21;72.91;101079.50;5096318;27;46361;-68
2022/10/26 06:58:16;;;;;;;;;2.50;1.00;;;;;17.20;73.11;101088.59;5089911;27;45637;-69
2022/10/26 07:00:43;;;;;;;;;5.75;2.25;;;;;17.19;73.06;101090.44;5074494;28;45315;-69
2022/10/26 07:03:08;;;;;;;;;5.00;4.00;;;;;17.11;73.24;101089.22;5091644;27;45594;-69
2022/10/26 07:05:34;;;;;;;;;3.00;3.00;;;;;17.14;73.29;101094.44;5095861;27;45360;-69
2022/10/26 07:07:59;;;;;;;;;3.75;3.75;;;;;17.10;73.54;101087.50;5095441;27;45415;-68
2022/10/26 07:10:25;;;;;;;;;5.75;4.00;;;;;17.11;73.02;101100.91;5096255;27;45238;-70
2022/10/26 07:12:50;;;;;;;;;4.50;3.75;;;;;17.13;73.50;101104.41;5095940;27;45448;-69
2022/10/26 07:15:15;;;;;;;;;3.00;3.00;;;;;17.12;73.57;101099.09;5095801;27;45329;-70
2022/10/26 07:17:45;;;;;;;;;4.75;3.00;;;;;17.15;73.58;101116.00;5077278;27;47235;-69
2022/10/26 07:20:11;;;;;;;;;9.00;8.00;;;;;17.15;73.16;101115.13;5096096;27;45333;-69
2022/10/26 07:22:36;;;;;;;;;6.25;5.00;;;;;17.13;73.57;101109.81;5095170;27;45461;-69
2022/10/26 07:25:02;;;;;;;;;2.00;2.00;;;;;17.08;73.61;101102.97;5084585;27;45938;-68
2022/10/26 07:27:28;;;;;;;;;5.00;3.00;;;;;17.14;73.37;101122.41;5075625;27;45553;-69
2022/10/26 07:29:53;;;;;;;;;4.00;4.00;;;;;17.17;73.55;101140.31;5095738;27;45326;-69
2022/10/26 07:32:18;;;;;;;;;3.50;3.50;;;;;17.17;72.90;101143.88;5095132;27;45381;-69
2022/10/26 07:34:44;;;;;;;;;4.75;4.75;;;;;17.22;73.39;101149.84;5095457;27;46765;-69
2022/10/26 07:37:09;;;;;;;;;4.00;4.00;;;;;17.25;73.11;101154.19;5095261;27;45326;-68
2022/10/26 07:39:34;;;;;;;;;4.25;3.00;;;;;17.23;73.05;101157.00;5095100;27;45473;-68
2022/10/26 07:42:00;;;;;;;;;2.00;2.00;;;;;17.22;73.13;101160.69;5094819;27;52089;-68
2022/10/26 07:44:25;;;;;;;;;3.75;3.00;;;;;17.21;73.13;101161.66;5095348;27;46090;-69
2022/10/26 07:46:50;;;;;;;;;4.00;2.75;;;;;17.25;73.20;101167.75;5088601;27;45345;-70
2022/10/26 07:49:16;;;;;;;;;2.75;2.25;;;;;17.28;73.01;101162.97;5094804;27;45196;-69
2022/10/26 07:51:41;;;;;;;;;2.75;2.75;;;;;17.25;73.10;101171.31;5094581;27;45230;-69
2022/10/26 07:54:07;;;;;;;;;4.00;4.00;;;;;17.22;73.88;101170.66;5095437;27;45298;-68
2022/10/26 07:56:32;;;;;;;;;4.75;4.00;;;;;17.15;73.54;101170.19;5075678;27;45399;-71
2022/10/26 07:58:58;;;;;;;;;4.00;4.00;;;;;17.16;73.78;101171.06;5095623;27;45681;-68
2022/10/26 08:01:23;;;;;;;;;4.00;3.00;;;;;17.17;74.04;101175.53;5094947;27;45248;-69
2022/10/26 08:03:52;;;;;;;;;3.25;3.00;;;;;17.07;74.03;101169.84;5095167;27;45497;-70
2022/10/26 08:06:18;;;;;;;;;4.75;3.25;;;;;17.19;73.89;101198.81;5094679;27;45327;-70
2022/10/26 08:08:43;;;;;;;;;7.50;5.00;;;;;17.22;74.09;101195.03;5093530;27;45510;-69
2022/10/26 08:11:09;;;;;;;;;6.75;5.00;;;;;17.24;73.97;101193.09;5092629;27;45690;-67
2022/10/26 08:13:34;;;;;;;;;8.50;3.25;;;;;17.25;73.97;101200.28;5075897;27;46298;-70
2022/10/26 08:16:02;;;;;;;;;4.75;4.00;;;;;17.25;73.83;101200.28;5094689;27;45204;-69
2022/10/26 08:18:27;;;;;;;;;4.00;4.00;;;;;17.28;73.80;101192.78;5095380;27;45199;-69
2022/10/26 08:20:53;;;;;;;;;5.25;4.75;;;;;17.33;73.53;101201.50;5094847;27;45330;-67
2022/10/26 08:23:19;;;;;;;;;6.50;5.00;;;;;17.37;73.06;101210.28;5094858;27;46071;-70
2022/10/26 08:25:44;;;;;;;;;4.75;4.75;;;;;17.40;73.05;101221.78;5094973;27;45228;-70
2022/10/26 08:28:10;;;;;;;;;6.00;4.00;;;;;17.37;72.95;101210.28;5095204;27;45384;-69
2022/10/26 08:30:35;;;;;;;;;4.00;4.00;;;;;17.40;72.80;101210.09;5094446;27;45487;-70
2022/10/26 08:33:06;;;;;;;;;4.25;4.00;;;;;17.49;72.73;101208.59;5094866;27;45880;-70
2022/10/26 08:35:32;;;;;;;;;3.50;3.50;;;;;17.50;73.11;101216.63;5076335;27;45259;-69
2022/10/26 08:37:57;;;;;;;;;5.00;4.00;;;;;17.55;72.93;101219.00;5094737;27;45502;-70
2022/10/26 08:40:29;;;;;;;;;5.00;4.50;;;;;17.56;72.52;101218.91;5094515;27;45508;-70
2022/10/26 08:43:14;;;;;;;;;6.75;4.00;;;;;17.56;72.39;101199.94;5094963;27;46207;-69
2022/10/26 08:45:47;;;;;;;;;4.25;4.25;;;;;17.56;72.31;101213.50;5094638;27;45325;-70
2022/10/26 08:48:18;;;;;;;;;6.00;3.25;;;;;17.66;72.36;101221.91;5094867;27;45342;-71
2022/10/26 08:50:54;;;;;;;;;2.50;2.50;;;;;17.64;72.11;101208.47;5075919;27;46179;-69
2022/10/26 08:53:29;;;;;;;;;5.00;3.00;;;;;17.76;71.77;101223.91;5094166;27;46092;-70
2022/10/26 08:56:01;;;;;;;;;3.25;3.25;;;;;17.75;72.07;101222.16;5094715;27;45433;-69
2022/10/26 08:58:35;;;;;;;;;3.25;3.25;;;;;17.84;71.89;101228.81;5076442;27;45378;-70
2022/10/26 09:01:02;;;;;;;;;3.25;2.00;;;;;17.94;71.63;101245.31;5098245;27;45737;-68
2022/10/26 09:03:27;;;;;;;;;1.00;1.00;;;;;17.94;70.88;101246.19;5098206;27;46969;-69
2022/10/26 09:06:17;;;;;;;;;4.00;1.75;;;;;18.00;71.03;101251.19;5079455;27;45312;-70
2022/10/26 09:08:50;;;;;;;;;7.00;2.25;;;;;18.06;70.73;101250.75;5098191;27;45346;-70
2022/10/26 09:11:21;;;;;;;;;1.50;0.50;;;;;18.12;70.99;101254.88;5094144;27;45430;-70
2022/10/26 09:13:54;;;;;;;;;3.00;1.75;;;;;18.22;70.28;101271.41;5079560;27;45584;-69
2022/10/26 09:16:31;;;;;;;;;1.00;1.00;;;;;18.26;70.03;101262.09;5086618;27;45650;-69
2022/10/26 09:19:18;;;;;;;;;2.00;1.00;;;;;18.33;70.09;101264.25;5090473;27;45556;-69
2022/10/26 09:22:10;;;;;;;;;2.50;0.50;;;;;18.32;69.11;101254.38;5097470;27;45560;-69
2022/10/26 09:24:46;;;;;;;;;0.75;0.75;;;;;18.38;69.35;101259.38;5097365;27;45393;-69
2022/10/26 09:27:17;;;;;;;;;1.00;1.00;;;;;18.42;68.24;101268.19;5097528;27;45293;-70
2022/10/26 09:29:43;;;;;;;;;1.00;1.00;;;;;18.43;68.36;101264.50;5097973;27;45334;-69
2022/10/26 09:32:20;;;;;;;;;1.00;1.00;;;;;18.51;68.08;101265.69;5097013;27;45446;-70
2022/10/26 09:34:59;;;;;;;;;0.00;0.00;;;;;18.57;66.96;101266.25;5097535;27;45349;-70
2022/10/26 09:37:30;;;;;;;;;3.00;1.00;;;;;18.65;66.81;101267.44;5078861;27;45510;-69
2022/10/26 09:40:17;;;;;;;;;0.25;0.25;;;;;18.74;66.48;101268.63;5080052;27;45197;-69
2022/10/26 09:42:51;;;;;;;;;2.00;2.00;;;;;18.77;66.34;101274.72;5075685;28;46396;-69
2022/10/26 09:45:42;;;;;;;;;1.00;1.00;;;;;18.87;66.74;101294.84;5092256;27;45643;-70
2022/10/26 09:48:35;;;;;;;;;3.00;1.00;;;;;18.88;66.51;101288.38;5097603;27;45324;-69
2022/10/26 09:51:01;;;;;;;;;0.50;0.50;;;;;18.97;66.06;101296.88;5097353;27;45477;-70
2022/10/26 09:53:26;;;;;;;;;1.00;1.00;;;;;18.96;65.99;101295.16;5097080;27;45368;-69
2022/10/26 09:56:11;;;;;;;;;2.25;1.50;;;;;19.01;66.24;101304.69;5097344;27;46204;-69
2022/10/26 09:58:49;;;;;;;;;2.00;2.00;;;;;19.05;66.35;101291.75;5097143;27;45529;-70
2022/10/26 10:01:28;;;;;;;;;1.00;1.00;;;;;19.14;65.83;101312.84;5097677;27;45367;-70
2022/10/26 10:04:12;;;;;;;;;1.75;1.75;;;;;19.12;65.26;101317.50;5097123;27;46023;-70
2022/10/26 10:06:38;;;;;;;;;2.25;1.00;;;;;19.10;65.52;101314.03;5096419;27;46088;-69
2022/10/26 10:09:10;;;;;;;;;2.25;1.75;;;;;19.09;65.65;101312.28;5097276;27;45400;-70
2022/10/26 10:11:43;;;;;;;;;3.00;1.50;;;;;19.22;65.50;101327.59;5095849;27;45499;-69
2022/10/26 10:14:19;;;;;;;;;3.75;1.00;;;;;19.19;64.96;101325.13;5096965;27;45523;-69
2022/10/26 10:16:56;;;;;;;;;0.00;0.00;;;;;19.21;65.42;101338.59;5078292;27;46522;-70
2022/10/26 10:19:29;;;;;;;;;1.00;1.00;;;;;19.24;65.26;101343.78;5096849;27;45399;-71
2022/10/26 10:21:57;;;;;;;;;1.00;1.00;;;;;19.27;65.37;101330.84;5096641;27;45250;-69
2022/10/26 10:24:33;;;;;;;;;3.50;1.00;;;;;19.32;65.00;101322.34;5096639;27;45622;-69
2022/10/26 10:27:15;;;;;;;;;1.00;1.00;;;;;19.46;64.84;101345.81;5096910;27;45467;-70
2022/10/26 10:29:42;;;;;;;;;3.00;1.25;;;;;19.49;64.63;101343.78;5097060;27;45254;-70
2022/10/26 10:32:14;;;;;;;;;2.75;1.50;;;;;19.58;64.67;101345.81;5095661;27;45487;-71
2022/10/26 10:34:40;;;;;;;;;1.50;1.50;;;;;19.66;64.46;101347.97;5094952;27;45572;-71
2022/10/26 10:37:05;;;;;;;;;0.50;0.50;;;;;19.74;64.04;101353.69;5086865;27;46338;-70
2022/10/26 10:39:38;;;;;;;;;0.50;0.50;;;;;19.85;64.82;101342.88;5075469;27;45341;-71
2022/10/26 10:42:14;;;;;;;;;3.00;1.00;;;;;19.88;64.16;101342.66;5078021;27;45245;-70
2022/10/26 10:44:39;;;;;;;;;2.00;0.50;;;;;20.05;63.30;101356.84;5096235;27;45261;-70
2022/10/26 10:47:06;;;;;;;;;1.75;0.50;;;;;20.14;63.63;101357.03;5096218;27;45624;-71
2022/10/26 10:49:32;;;;;;;;;0.50;0.50;;;;;20.26;64.04;101356.06;5096479;27;45291;-71
2022/10/26 10:51:58;;;;;;;;;0.75;0.75;;;;;20.50;63.28;101347.91;5095870;27;45845;-71
2022/10/26 10:54:23;;;;;;;;;0.50;0.50;;;;;21.12;60.43;101348.38;5095947;27;45479;-71
2022/10/26 10:57:38;;;;;;;;;2.25;1.25;;;;;22.22;56.57;101340.16;5078914;27;45440;-71
2022/10/26 11:00:05;;;;;;;;;3.50;1.50;;;;;23.59;55.08;101355.44;5027443;27;45493;-71
2022/10/26 11:02:48;;;;;;;;;0.75;0.75;;;;;24.83;50.62;101362.03;5075581;27;45558;-71
2022/10/26 11:05:20;;;;;;;;;4.00;0.50;;;;;25.47;46.65;101360.41;5075559;27;45833;-71
2022/10/26 11:07:59;;;;;;;;;1.50;0.75;;;;;26.51;45.62;101359.91;5093724;27;45415;-71
2022/10/26 11:10:29;;;;;;;;;1.00;1.00;;;;;27.44;45.00;101348.16;5096238;27;45460;-72
2022/10/26 11:13:03;;;;;;;;;1.00;1.00;;;;;28.32;41.44;101345.91;5095925;27;45418;-71
2022/10/26 11:15:31;;;;;;;;;2.00;2.00;;;;;29.18;39.61;101354.47;5081943;27;46131;-71
2022/10/26 11:18:06;;;;;;;;;1.00;1.00;;;;;30.14;39.54;101367.25;5077026;27;46085;-72
2022/10/26 11:20:38;;;;;;;;;1.00;1.00;;;;;30.66;36.09;101343.34;5075656;27;45314;-74
2022/10/26 11:23:11;;;;;;;;;0.00;0.00;;;;;31.21;35.37;101369.84;5083455;27;45361;-74
2022/10/26 11:25:46;;;;;;;;;0.00;0.00;;;;;31.77;35.57;101361.91;5095564;27;45977;-70
2022/10/26 11:28:21;;;;;;;;;1.67;0.33;;;;;31.53;34.19;101361.16;5078905;27;46732;-71
2022/10/26 11:30:55;;;;;;;;;0.00;0.00;;;;;32.14;34.23;101361.75;5095522;27;45315;-74
2022/10/26 11:33:28;;;;;;;;;0.00;0.00;;;;;32.23;32.95;101366.16;5095815;27;45332;-76
2022/10/26 11:36:07;;;;;;;;;1.00;0.00;;;;;32.29;33.25;101367.25;5095633;27;45838;-75
2022/10/26 11:38:39;;;;;;;;;1.33;0.67;;;;;32.47;32.90;101364.03;5095460;27;45356;-76
2022/10/26 11:41:28;;;;;;;;;2.00;1.00;;;;;33.00;32.01;101369.03;5096527;27;45376;-76
2022/10/26 11:44:18;;;;;;;;;1.00;1.00;;;;;33.53;31.64;101377.75;5077459;27;45232;-75
2022/10/26 11:47:10;;;;;;;;;1.33;0.67;;;;;33.65;31.05;101372.47;5095553;27;45554;-76
2022/10/26 11:49:46;;;;;;;;;2.33;2.00;;;;;34.31;29.96;101387.53;5095176;27;46218;-74
2022/10/26 11:52:26;;;;;;;;;1.00;1.00;;;;;34.20;30.17;101381.72;5095297;27;45341;-77
2022/10/26 11:55:00;;;;;;;;;1.33;1.00;;;;;34.21;29.67;101375.06;5095835;27;45413;-72
2022/10/26 11:57:28;;;;;;;;;2.00;2.00;;;;;35.06;29.46;101378.00;5098598;27;45382;-76
2022/10/26 12:00:01;;;;;;;;;1.00;1.00;;;;;35.28;29.14;101384.25;5095568;27;46569;-75
2022/10/26 12:02:27;;;;;;;;;0.00;0.00;;;;;35.49;28.23;101386.75;5095715;27;45410;-74
2022/10/26 12:05:04;;;;;;;;;0.33;0.00;;;;;35.29;28.16;101397.09;5095365;27;45336;-73
2022/10/26 12:07:34;;;;;;;;;2.00;0.67;;;;;33.90;30.14;101390.38;5094990;27;47318;-74
2022/10/26 12:10:02;;;;;;;;;0.33;0.33;;;;;32.98;31.90;101398.06;5094939;27;46246;-75
2022/10/26 12:12:45;;;;;;;;;1.00;1.00;;;;;33.13;31.67;101396.06;5095342;27;45409;-74
2022/10/26 12:15:40;;;;;;;;;1.00;0.67;;;;;33.43;31.12;101392.00;5095011;27;45340;-73
2022/10/26 12:18:25;;;;;;;;;4.67;0.00;;;;;33.56;30.76;101390.38;5094828;27;45330;-74
2022/10/26 12:20:53;;;;;;;;;1.00;1.00;;;;;33.77;30.69;101395.91;5094750;27;46244;-76
2022/10/26 12:23:19;;;;;;;;;1.33;0.00;;;;;34.23;30.30;101400.75;5073046;28;45377;-75
2022/10/26 12:25:44;;;;;;;;;2.67;1.00;;;;;33.88;29.70;101400.00;5089700;27;45276;-74
2022/10/26 12:28:38;;;;;;;;;1.00;1.00;;;;;33.13;30.86;101403.53;5096068;27;45477;-73
2022/10/26 12:31:31;;;;;;;;;1.33;0.00;;;;;33.00;31.48;101404.28;5092660;27;45968;-73
2022/10/26 12:33:58;;;;;;;;;1.33;0.00;;;;;32.19;32.53;101405.56;5093351;27;45354;-74
2022/10/26 12:36:46;;;;;;;;;2.00;0.00;;;;;30.94;34.77;101410.06;5094402;27;45515;-73
2022/10/26 12:39:32;;;;;;;;;0.00;0.00;;;;;29.88;36.43;101412.63;5094978;27;45329;-74
2022/10/26 12:42:18;;;;;;;;;1.33;0.33;;;;;28.79;38.16;101411.47;5094582;27;45270;-73
2022/10/26 12:44:46;;;;;;;;;2.00;0.33;;;;;28.21;40.12;101410.50;5094904;27;45299;-72
2022/10/26 12:47:26;;;;;;;;;0.67;0.67;;;;;27.52;41.14;101424.47;5094776;27;45438;-73
2022/10/26 12:50:06;;;;;;;;;0.67;0.67;;;;;26.66;43.10;101417.94;5094646;27;45265;-73
2022/10/26 12:52:55;;;;;;;;;0.75;0.75;;;;;26.36;44.26;101417.34;5094381;27;46076;-72
2022/10/26 12:55:32;;;;;;;;;0.50;0.50;;;;;25.96;44.81;101414.94;5094521;27;45286;-71
2022/10/26 12:58:18;;;;;;;;;1.00;1.00;;;;;25.73;45.55;101424.63;5094757;27;45509;-72
2022/10/26 13:01:12;;;;;;;;;2.75;0.00;;;;;25.19;47.20;101411.63;5094656;27;45415;-71
2022/10/26 13:04:12;;;;;;;;;2.50;1.00;;;;;24.73;47.46;101402.31;5094425;27;46648;-73
2022/10/26 13:07:08;;;;;;;;;2.00;0.50;;;;;24.62;48.27;101429.88;5031082;28;45537;-73
2022/10/26 13:09:33;;;;;;;;;0.75;0.75;;;;;24.51;48.08;101389.75;5094387;27;45386;-74
2022/10/26 13:12:01;;;;;;;;;2.75;1.25;;;;;24.51;48.48;101402.59;5094610;27;45552;-73
2022/10/26 13:14:45;;;;;;;;;2.25;1.00;;;;;24.62;48.95;101412.56;5094197;27;46382;-73
2022/10/26 13:17:24;;;;;;;;;0.50;0.50;;;;;24.39;49.11;101420.22;5094367;27;45359;-73
2022/10/26 13:19:55;;;;;;;;;0.00;0.00;;;;;24.25;48.92;101428.81;5094722;27;45398;-71
2022/10/26 13:22:22;;;;;;;;;0.75;0.00;;;;;24.28;49.37;101432.16;5093666;27;45321;-72
2022/10/26 13:24:53;;;;;;;;;1.00;1.00;;;;;24.20;49.60;101426.50;5094354;27;45262;-72
2022/10/26 13:27:18;;;;;;;;;0.00;0.00;;;;;24.25;49.41;101431.56;5094238;27;45362;-73
2022/10/26 13:30:02;;;;;;;;;0.00;0.00;;;;;24.22;49.22;101426.38;5094678;27;45415;-71
2022/10/26 13:32:34;;;;;;;;;1.00;1.00;;;;;24.23;49.47;101422.66;5075873;27;45564;-73
2022/10/26 13:35:01;;;;;;;;;0.00;0.00;;;;;24.13;49.40;101428.94;5072224;28;47126;-74
2022/10/26 13:37:31;;;;;;;;;0.00;0.00;;;;;24.24;49.35;101429.88;5073231;27;45473;-73
2022/10/26 13:39:59;;;;;;;;;0.25;0.25;;;;;24.49;48.63;101438.41;5073881;27;45330;-72
2022/10/26 13:42:31;;;;;;;;;3.50;0.75;;;;;25.11;47.83;101417.88;5072098;28;45567;-72
2022/10/26 13:45:10;;;;;;;;;1.00;1.00;;;;;26.25;45.60;101430.41;5073707;28;46397;-72
2022/10/26 13:47:41;;;;;;;;;1.67;0.67;;;;;26.94;44.11;101427.88;5076827;27;45321;-72
2022/10/26 13:50:14;;;;;;;;;0.00;0.00;;;;;27.85;41.99;101423.63;5077041;28;45252;-72
2022/10/26 13:52:49;;;;;;;;;2.33;0.00;;;;;28.93;40.60;101419.03;5076731;27;45229;-73
2022/10/26 13:55:44;;;;;;;;;2.00;0.00;;;;;29.98;37.98;101421.59;5076851;28;46488;-72
2022/10/26 13:58:19;;;;;;;;;0.00;0.00;;;;;30.83;37.23;101421.59;5093018;27;45350;-73
2022/10/26 14:01:00;;;;;;;;;0.00;0.00;;;;;31.26;35.41;101424.69;5097436;27;45350;-73
2022/10/26 14:03:25;;;;;;;;;0.00;0.00;;;;;31.85;35.37;101428.38;5096908;27;45645;-72
2022/10/26 14:05:51;;;;;;;;;0.00;0.00;;;;;32.18;33.34;101429.69;5097050;27;46073;-74
2022/10/26 14:08:19;;;;;;;;;1.00;0.00;;;;;32.64;33.57;101432.13;5078563;27;45499;-74
2022/10/26 14:10:54;;;;;;;;;2.33;2.00;;;;;33.04;32.74;101417.56;5097421;27;45354;-72
2022/10/26 14:13:25;;;;;;;;;2.00;0.00;;;;;31.95;32.82;101412.28;5097068;27;45319;-73
2022/10/26 14:15:51;;;;;;;;;0.67;0.00;;;;;31.42;33.98;101430.03;5096898;27;45487;-73
2022/10/26 14:18:24;;;;;;;;;1.00;0.00;;;;;31.37;34.52;101433.41;5097375;27;45368;-73
2022/10/26 14:20:54;;;;;;;;;1.33;0.00;;;;;31.36;34.40;101425.28;5096921;27;45362;-73
2022/10/26 14:23:44;;;;;;;;;0.00;0.00;;;;;31.43;34.22;101427.09;5096894;27;45455;-73
2022/10/26 14:26:18;;;;;;;;;0.00;0.00;;;;;31.46;34.31;101425.88;5096952;27;45410;-73
2022/10/26 14:28:49;;;;;;;;;0.00;0.00;;;;;31.60;33.92;101425.00;5088657;27;45435;-72
2022/10/26 14:31:27;;;;;;;;;0.00;0.00;;;;;31.72;33.73;101433.75;5096954;27;45327;-73
2022/10/26 14:33:54;;;;;;;;;1.00;0.00;;;;;32.05;33.67;101445.28;5096856;27;45197;-75
2022/10/26 14:36:24;;;;;;;;;0.67;0.00;;;;;31.73;33.19;101439.06;5096698;27;45520;-73
2022/10/26 14:38:56;;;;;;;;;1.00;0.33;;;;;31.29;33.52;101413.22;5096544;27;45319;-73
2022/10/26 14:41:22;;;;;;;;;1.00;0.00;;;;;31.71;33.63;101443.09;5097149;27;45558;-74
2022/10/26 14:43:48;;;;;;;;;0.33;0.33;;;;;31.90;33.77;101434.22;5096317;27;45409;-73
2022/10/26 14:46:16;;;;;;;;;0.00;0.00;;;;;31.69;33.21;101439.66;5096764;27;45353;-74
2022/10/26 14:48:53;;;;;;;;;1.00;0.00;;;;;31.77;33.18;101434.00;5096612;27;45381;-72
2022/10/26 14:51:24;;;;;;;;;0.00;0.00;;;;;31.53;33.80;101432.38;5096594;27;45240;-73
2022/10/26 14:53:51;;;;;;;;;1.00;1.00;;;;;31.49;34.33;101437.41;5096129;27;45497;-74
2022/10/26 14:56:27;;;;;;;;;1.33;0.00;;;;;31.33;34.20;101426.50;5096028;27;45352;-73
2022/10/26 14:58:54;;;;;;;;;0.00;0.00;;;;;31.25;34.67;101421.06;5096781;27;45344;-74
2022/10/26 15:01:22;;;;;;;;;1.67;0.00;;;;;31.14;34.79;101436.22;5096440;27;45404;-73
2022/10/26 15:03:53;;;;;;;;;3.00;1.00;;;;;30.98;34.70;101429.94;5096603;27;45476;-72
2022/10/26 15:06:28;;;;;;;;;2.00;0.33;;;;;30.70;35.68;101429.66;5095767;27;46595;-73
2022/10/26 15:08:58;;;;;;;;;3.00;0.00;;;;;30.28;36.10;101439.25;5096249;27;45509;-73
2022/10/26 15:11:28;;;;;;;;;1.67;0.00;;;;;29.88;36.92;101437.50;5096269;27;45317;-73
2022/10/26 15:13:56;;;;;;;;;0.00;0.00;;;;;29.63;37.22;101439.50;5096260;27;45616;-73
2022/10/26 15:16:28;;;;;;;;;0.00;0.00;;;;;29.17;37.82;101438.38;5095619;27;45464;-74
2022/10/26 15:19:08;;;;;;;;;0.00;0.00;;;;;28.76;38.81;101433.84;5096115;27;45334;-73
2022/10/26 15:21:43;;;;;;;;;1.00;0.00;;;;;28.40;39.77;101436.06;5095868;27;45423;-73
2022/10/26 15:24:29;;;;;;;;;0.33;0.00;;;;;28.23;39.90;101435.16;5095806;27;45362;-73
2022/10/26 15:26:56;;;;;;;;;2.33;0.00;;;;;27.92;40.64;101443.09;5095818;27;46685;-74
2022/10/26 15:29:33;;;;;;;;;1.00;1.00;;;;;27.65;40.82;101443.31;5095598;27;45209;-74
2022/10/26 15:31:59;;;;;;;;;0.00;0.00;;;;;27.36;41.18;101439.00;5095874;27;45310;-73
2022/10/26 15:34:25;;;;;;;;;0.00;0.00;;;;;27.18;42.05;101445.59;5095678;27;45334;-73
2022/10/26 15:36:50;;;;;;;;;0.25;0.25;;;;;26.89;41.84;101438.44;5095337;27;45340;-73
2022/10/26 15:39:16;;;;;;;;;0.33;0.33;;;;;26.71;42.41;101446.69;5095490;27;45353;-72
2022/10/26 15:41:46;;;;;;;;;1.25;1.00;;;;;26.50;42.57;101448.03;5096094;27;45335;-73
2022/10/26 15:44:16;;;;;;;;;3.00;0.00;;;;;26.24;43.84;101447.91;5075085;27;45673;-72
2022/10/26 15:46:42;;;;;;;;;0.00;0.00;;;;;26.08;43.56;101455.97;5074988;27;45424;-73
2022/10/26 15:49:14;;;;;;;;;0.00;0.00;;;;;25.91;44.51;101461.25;5075139;28;45571;-73
2022/10/26 15:51:44;;;;;;;;;1.75;1.00;;;;;25.66;45.36;101453.72;5074967;27;45369;-72
2022/10/26 15:54:09;;;;;;;;;0.00;0.00;;;;;25.34;45.87;101442.25;5075069;27;45506;-73
2022/10/26 15:56:35;;;;;;;;;1.00;1.00;;;;;25.25;46.27;101453.09;5074883;27;46049;-74
2022/10/26 15:59:00;;;;;;;;;1.00;1.00;;;;;25.09;46.53;101457.47;5075184;28;45319;-73
2022/10/26 16:01:27;;;;;;;;;0.00;0.00;;;;;24.96;46.62;101449.53;5075084;27;45268;-74
2022/10/26 16:03:53;;;;;;;;;0.00;0.00;;;;;24.92;46.69;101452.72;5075257;27;45288;-73
2022/10/26 16:06:27;;;;;;;;;0.00;0.00;;;;;24.91;47.39;101464.66;5074458;28;45280;-75
2022/10/26 16:08:56;;;;;;;;;1.00;1.00;;;;;24.82;47.14;101452.69;5083740;27;45470;-75
2022/10/26 16:11:22;;;;;;;;;1.00;0.00;;;;;24.77;47.35;101461.34;5095350;27;45375;-73
2022/10/26 16:13:47;;;;;;;;;1.00;1.00;;;;;24.56;47.95;101460.63;5095590;27;45730;-74
2022/10/26 16:16:15;;;;;;;;;1.00;1.00;;;;;24.44;48.05;101457.13;5094936;27;45480;-73